Time;durP1;ratioP1;P1;durP2;ratioP2;P2;SDS_P1;SDS_P2;PMS_P1;PMS_P2;Temp;Humidity;BMP_temperature;BMP_pressure;BME280_temperature;BME280_humidity;BME280_pressure;Samples;Min_cycle;Max_cycle;Signal;HPM_P1;HPM_P2
2022/12/13 00:03:12;;;;;;;5.43;3.65;;;3.20;55.50;;;1.58;62.26;100902.38;12213118;19;20019;-81
2022/12/13 00:07:14;;;;;;;4.80;3.40;;;3.30;55.50;;;1.64;62.21;100909.16;12210201;19;20812;-82
2022/12/13 00:11:16;;;;;;;5.50;3.42;;;3.30;55.50;;;1.67;62.23;100912.50;12207084;19;20051;-82
2022/12/13 00:15:19;;;;;;;5.25;3.80;;;3.50;55.50;;;1.56;62.19;100883.53;12206272;19;20034;-82
2022/12/13 00:19:20;;;;;;;4.38;3.72;;;3.50;55.50;;;1.74;62.20;100911.56;12208676;19;20014;-82
2022/12/13 00:23:23;;;;;;;5.38;3.88;;;3.30;55.50;;;1.75;62.01;100913.25;12206275;19;20029;-82
2022/12/13 00:27:25;;;;;;;6.22;3.92;;;3.30;55.50;;;1.66;62.08;100886.81;12211201;19;20014;-83
2022/12/13 00:31:30;;;;;;;6.13;4.32;;;3.30;55.30;;;1.65;62.33;100877.41;12205108;19;20121;-83
2022/12/13 00:35:38;;;;;;;5.55;3.90;;;3.50;55.50;;;1.75;62.18;100899.53;12206295;19;20451;-83
2022/12/13 00:39:40;;;;;;;6.03;3.72;;;3.30;55.50;;;1.70;62.13;100889.31;12204276;19;20014;-82
2022/12/13 00:43:42;;;;;;;6.60;4.25;;;3.30;55.50;;;1.68;62.22;100870.47;12189353;19;20296;-82
2022/12/13 00:47:45;;;;;;;6.15;4.53;;;3.30;55.40;;;1.73;61.98;100883.28;12164469;19;20022;-81
2022/12/13 00:51:48;;;;;;;6.28;4.13;;;3.30;55.50;;;1.72;62.14;100877.25;12163423;19;20021;-81
2022/12/13 00:55:50;;;;;;;6.85;3.97;;;3.30;55.40;;;1.70;61.94;100878.16;12161366;19;20371;-82
2022/12/13 00:59:52;;;;;;;4.97;4.10;;;3.30;55.40;;;1.67;62.12;100873.91;12164968;19;20033;-82
2022/12/13 01:03:56;;;;;;;6.90;4.50;;;3.30;55.40;;;1.69;62.28;100872.16;12163069;19;20842;-82
2022/12/13 01:07:58;;;;;;;7.03;4.82;;;3.30;55.40;;;1.73;62.10;100878.13;12202674;19;20303;-83
2022/12/13 01:12:04;;;;;;;6.05;4.60;;;3.30;55.50;;;1.71;62.15;100877.28;12202642;19;20741;-83
2022/12/13 01:16:09;;;;;;;5.22;3.95;;;3.30;55.30;;;1.72;62.16;100879.84;12207123;19;20027;-82
2022/12/13 01:20:11;;;;;;;6.60;4.45;;;3.30;55.40;;;1.75;62.02;100884.91;12202872;19;20032;-83
2022/12/13 01:24:14;;;;;;;7.60;4.43;;;3.30;55.50;;;1.77;61.96;100883.19;12206115;19;20018;-83
2022/12/13 01:28:16;;;;;;;6.78;4.90;;;3.40;55.50;;;1.72;62.07;100874.69;12207435;19;20025;-83
2022/12/13 01:32:18;;;;;;;7.10;5.07;;;3.40;55.30;;;1.81;62.08;100880.56;12206871;19;20486;-83
2022/12/13 01:36:22;;;;;;;6.60;4.57;;;3.40;55.50;;;1.77;62.12;100877.19;12206578;19;20025;-82
2022/12/13 01:40:24;;;;;;;5.43;4.30;;;3.40;55.40;;;1.80;61.99;100878.88;12206888;19;20595;-82
2022/12/13 01:44:51;;;;;;;6.13;4.13;;;3.30;55.30;;;1.76;61.94;100872.94;12200942;19;20029;-82
2022/12/13 01:49:09;;;;;;;6.10;4.10;;;3.40;55.30;;;1.77;62.00;100878.03;12204002;19;20047;-83
2022/12/13 01:53:17;;;;;;;5.80;3.95;;;3.40;55.40;;;1.75;61.93;100874.63;12207283;19;20015;-83
2022/12/13 01:57:21;;;;;;;7.72;5.10;;;3.40;55.50;;;1.70;62.10;100868.72;12202491;19;20011;-83
2022/12/13 02:01:24;;;;;;;5.30;4.13;;;3.40;55.40;;;1.74;62.03;100869.53;12200021;19;20520;-82
2022/12/13 02:05:33;;;;;;;6.00;3.90;;;3.30;55.40;;;1.70;62.05;100868.72;12197189;19;20790;-82
2022/12/13 02:09:37;;;;;;;6.57;4.43;;;3.30;55.30;;;1.73;61.91;100868.69;12176448;19;20843;-82
2022/12/13 02:13:38;;;;;;;5.82;3.97;;;3.30;55.30;;;1.76;61.78;100868.63;12177623;19;20018;-82
2022/12/13 02:17:52;;;;;;;5.85;4.07;;;3.30;55.20;;;1.76;61.93;100868.63;12174683;19;20030;-83
2022/12/13 02:22:04;;;;;;;6.30;4.03;;;3.40;55.20;;;1.74;61.85;100872.09;12194544;19;20643;-82
2022/12/13 02:26:50;;;;;;;4.43;3.72;;;3.30;55.20;;;1.76;61.95;100870.34;12199183;19;20021;-83
2022/12/13 02:31:23;;;;;;;5.47;4.10;;;3.30;55.10;;;1.76;61.99;100863.47;12208172;19;20402;-82
2022/12/13 02:35:46;;;;;;;5.35;3.70;;;3.30;55.20;;;1.69;61.93;100849.00;12207540;19;20105;-83
2022/12/13 02:40:27;;;;;;;6.78;4.10;;;3.30;55.20;;;1.71;61.74;100849.81;12211313;19;20017;-83
2022/12/13 02:44:44;;;;;;;5.38;4.05;;;3.40;55.30;;;1.68;61.81;100834.44;12211635;19;20444;-82
2022/12/13 02:48:50;;;;;;;5.10;3.72;;;3.40;55.30;;;1.65;61.83;100839.66;12209188;19;20014;-82
2022/12/13 02:52:53;;;;;;;;;;;3.30;55.40;;;1.72;61.90;100846.38;12206765;19;20022;-83
2022/12/13 02:56:59;;;;;;;6.38;4.43;;;3.40;55.60;;;1.76;61.82;100850.59;12206420;19;19911;-83
2022/12/13 03:01:48;;;;;;;6.82;4.35;;;3.40;55.40;;;1.75;61.86;100851.47;12206763;19;20105;-82
2022/12/13 03:06:36;;;;;;;7.25;4.25;;;3.30;55.30;;;1.76;61.97;100844.59;12208125;19;20025;-82
2022/12/13 03:11:11;;;;;;;6.82;4.40;;;3.30;55.40;;;1.80;61.70;100853.13;12203910;19;20018;-81
2022/12/13 03:15:34;;;;;;;6.07;4.00;;;3.40;55.40;;;1.82;61.77;100859.09;12206463;19;20022;-82
2022/12/13 03:19:36;;;;;;;7.10;4.55;;;3.40;55.60;;;1.80;61.89;100855.69;12206450;19;20018;-82
2022/12/13 03:23:38;;;;;;;7.90;5.63;;;3.40;55.40;;;1.76;62.00;100845.44;12212118;19;20034;-82
2022/12/13 03:27:40;;;;;;;7.85;4.95;;;3.40;55.50;;;1.67;61.85;100822.44;12212840;19;20390;-81
2022/12/13 03:31:42;;;;;;;9.20;5.55;;;3.40;55.70;;;1.79;62.03;100846.28;12204581;19;20030;-82
2022/12/13 03:35:44;;;;;;;7.80;5.22;;;3.40;55.70;;;1.73;61.98;100842.94;12209874;19;20022;-81
2022/12/13 03:39:46;;;;;;;7.80;5.28;;;3.40;55.70;;;1.76;61.83;100842.88;12204316;19;20022;-82
2022/12/13 03:43:49;;;;;;;10.65;6.15;;;3.40;55.80;;;1.76;61.84;100834.31;12204370;19;20093;-82
2022/12/13 03:47:50;;;;;;;9.13;5.65;;;3.40;55.80;;;1.79;62.02;100836.00;12203986;19;20042;-82
2022/12/13 03:51:52;;;;;;;9.68;6.05;;;3.50;55.90;;;1.82;61.79;100841.06;12200707;19;20094;-82
2022/12/13 03:55:54;;;;;;;9.15;5.78;;;3.70;56.00;;;1.73;62.05;100824.91;12206255;19;20011;-82
2022/12/13 03:59:56;;;;;;;10.75;6.05;;;3.30;55.90;;;1.87;61.83;100840.13;12204101;19;21053;-82
2022/12/13 04:03:58;;;;;;;9.20;6.25;;;3.40;56.00;;;1.88;61.85;100838.38;12202716;19;20039;-83
2022/12/13 04:08:00;;;;;;;9.60;5.90;;;3.40;55.90;;;1.76;61.92;100819.72;12205793;19;20014;-82
2022/12/13 04:16:24;;;;;;;10.88;6.63;;;3.40;56.30;;;1.88;61.68;100830.66;12167639;19;20308;-81
2022/12/13 04:20:26;;;;;;;9.43;5.82;;;3.70;56.10;;;1.81;62.03;100818.75;12162239;19;20590;-81
2022/12/13 04:24:28;;;;;;;9.80;6.47;;;3.40;56.00;;;1.89;61.94;100827.19;12169371;19;20025;-81
2022/12/13 04:28:30;;;;;;;8.75;5.45;;;3.40;56.00;;;1.88;62.06;100828.94;12178501;19;20022;-82
2022/12/13 04:32:32;;;;;;;8.43;5.60;;;3.50;56.10;;;1.75;61.94;100815.41;12179811;19;20422;-82
2022/12/13 04:36:34;;;;;;;10.80;6.43;;;3.40;56.00;;;1.78;61.80;100814.53;12177069;19;20018;-81
2022/12/13 04:40:35;;;;;;;9.23;5.57;;;3.50;56.10;;;1.89;61.72;100832.34;12171017;19;20022;-82
2022/12/13 04:44:37;;;;;;;9.85;6.60;;;3.50;56.10;;;1.91;61.73;100835.75;12179059;19;20323;-81
2022/12/13 04:48:39;;;;;;;12.20;6.35;;;3.50;56.10;;;1.84;61.98;100826.47;12176062;19;20014;-81
2022/12/13 04:52:41;;;;;;;10.88;6.75;;;3.40;56.10;;;1.91;61.68;100846.91;12168488;19;20039;-81
2022/12/13 04:56:43;;;;;;;11.23;6.80;;;3.50;56.20;;;1.87;61.89;100837.53;12168665;19;20026;-82
2022/12/13 05:00:45;;;;;;;9.93;6.70;;;3.50;56.10;;;1.83;61.77;100822.16;12168823;19;20010;-81
2022/12/13 05:04:47;;;;;;;10.18;6.60;;;3.50;56.10;;;1.86;61.71;100827.25;12158291;19;20015;-82
2022/12/13 05:08:48;;;;;;;11.82;5.93;;;3.40;56.10;;;1.90;61.83;100829.75;12190275;19;20011;-82
2022/12/13 05:12:50;;;;;;;9.55;6.35;;;3.50;56.40;;;1.79;62.04;100815.41;12196964;19;20325;-82
2022/12/13 05:16:52;;;;;;;13.05;7.60;;;3.50;56.20;;;1.95;61.69;100837.41;12195913;19;20390;-81
2022/12/13 05:20:54;;;;;;;9.57;6.03;;;3.50;56.10;;;1.84;61.81;100824.72;12181763;19;20082;-82
2022/12/13 05:24:56;;;;;;;9.10;6.22;;;3.50;56.10;;;1.92;61.89;100840.91;12176966;19;20022;-82
2022/12/13 05:28:58;;;;;;;10.73;6.20;;;3.40;56.10;;;1.92;61.85;100848.63;12177429;19;20424;-82
2022/12/13 05:32:59;;;;;;;7.80;5.53;;;3.50;56.10;;;1.77;61.89;100817.97;12172573;19;20046;-82
2022/12/13 05:37:02;;;;;;;10.63;6.65;;;3.40;56.10;;;1.86;61.80;100837.56;12168135;19;20388;-81
2022/12/13 05:41:04;;;;;;;9.13;6.25;;;3.50;56.10;;;1.87;61.82;100834.13;12164343;19;20410;-82
2022/12/13 05:45:07;;;;;;;11.90;6.80;;;3.50;56.10;;;1.89;61.83;100842.66;12165063;19;20018;-82
2022/12/13 05:49:09;;;;;;;10.02;6.65;;;3.40;56.10;;;1.75;62.02;100818.00;12163015;19;20044;-81
2022/12/13 05:53:11;;;;;;;9.52;6.30;;;3.40;56.10;;;1.87;61.69;100828.97;12162432;19;20446;-82
2022/12/13 05:57:13;;;;;;;10.15;6.32;;;3.40;56.00;;;1.90;61.82;100837.50;12155907;19;20402;-81
2022/12/13 06:01:15;;;;;;;9.40;5.82;;;3.40;56.00;;;1.89;61.82;100827.19;12151995;19;20014;-81
2022/12/13 06:05:17;;;;;;;9.43;5.85;;;3.50;56.10;;;1.92;61.87;100848.63;12175466;19;20272;-82
2022/12/13 06:09:20;;;;;;;9.63;5.60;;;3.50;56.00;;;1.88;61.98;100836.66;12174333;19;20019;-82
2022/12/13 06:13:22;;;;;;;8.95;5.93;;;3.50;56.00;;;1.88;61.84;100830.66;12175178;19;20827;-81
2022/12/13 06:17:24;;;;;;;8.32;5.43;;;3.40;56.00;;;1.91;61.83;100836.59;12164261;19;20023;-81
2022/12/13 06:21:25;;;;;;;8.65;5.95;;;3.50;56.00;;;1.89;62.00;100829.78;12154179;19;20018;-82
2022/12/13 06:25:27;;;;;;;10.18;5.93;;;3.70;56.10;;;1.86;61.88;100832.41;12155285;19;20399;-83
2022/12/13 06:29:28;;;;;;;10.23;5.82;;;3.70;56.10;;;1.92;61.91;100850.34;12152051;19;20034;-82
2022/12/13 06:33:34;;;;;;;11.02;6.50;;;3.50;56.00;;;1.83;61.76;100827.31;12153634;19;20280;-82
2022/12/13 06:37:35;;;;;;;;;;;3.50;56.00;;;1.84;61.70;100841.91;12153745;19;20028;-82
2022/12/13 06:41:37;;;;;;;10.02;5.72;;;3.40;56.00;;;1.87;61.70;100865.03;12145449;19;20021;-82
2022/12/13 06:45:41;;;;;;;8.27;6.07;;;3.40;56.00;;;1.90;61.93;100870.97;12158444;19;20014;-81
2022/12/13 06:49:43;;;;;;;6.65;4.97;;;3.50;56.00;;;1.77;61.88;100847.16;12154599;19;20870;-83
2022/12/13 06:53:44;;;;;;;10.40;6.25;;;3.40;56.00;;;1.86;61.73;100864.16;12146224;19;20007;-81
2022/12/13 06:57:46;;;;;;;8.30;5.45;;;3.40;55.90;;;1.88;61.80;100874.44;12145309;19;20022;-82
2022/12/13 07:01:48;;;;;;;7.70;5.25;;;3.40;55.90;;;1.81;61.83;100867.69;12147000;19;20019;-82
2022/12/13 07:05:50;;;;;;;10.02;5.53;;;3.40;55.90;;;1.88;61.81;100877.00;12149521;19;20018;-83
2022/12/13 07:09:52;;;;;;;11.63;6.60;;;3.40;56.00;;;1.90;61.84;100885.56;12150725;19;20559;-82
2022/12/13 07:13:54;;;;;;;9.88;6.22;;;3.40;56.00;;;1.87;61.68;100880.47;12150548;19;20427;-82
2022/12/13 07:17:56;;;;;;;11.90;6.80;;;3.40;56.00;;;1.88;61.81;100877.00;12144368;19;20026;-82
2022/12/13 07:21:58;;;;;;;10.80;6.68;;;3.40;56.00;;;1.72;61.81;100856.66;12143682;19;20478;-82
2022/12/13 07:26:01;;;;;;;10.07;6.18;;;3.40;56.00;;;1.90;61.95;100895.88;12146759;19;20018;-83
2022/12/13 07:30:03;;;;;;;10.02;6.55;;;3.40;56.00;;;1.79;61.75;100874.59;12147640;19;20419;-83
2022/12/13 07:34:05;;;;;;;11.18;6.75;;;3.40;56.00;;;1.88;61.66;100890.72;12151731;19;20589;-83
2022/12/13 07:38:09;;;;;;;10.82;6.63;;;3.40;56.00;;;1.84;61.64;100893.41;12147388;19;20372;-83
2022/12/13 07:42:11;;;;;;;10.32;6.20;;;3.40;56.00;;;1.66;61.65;100861.91;12146037;19;20378;-82
2022/12/13 07:46:13;;;;;;;10.32;6.85;;;3.40;56.00;;;1.87;61.91;100899.34;12160164;19;20892;-82
2022/12/13 07:50:16;;;;;;;8.80;6.03;;;3.40;56.00;;;1.68;61.77;100875.63;12165955;19;20446;-82
2022/12/13 07:54:18;;;;;;;9.48;6.35;;;3.40;56.00;;;1.83;61.78;100899.41;12169298;19;20010;-82
2022/12/13 07:58:20;;;;;;;10.10;6.50;;;3.40;55.90;;;1.87;61.87;100909.63;12143193;19;20026;-82
2022/12/13 08:02:21;;;;;;;11.43;6.95;;;3.40;56.00;;;1.88;61.85;100911.31;12145892;19;20891;-82
2022/12/13 08:06:23;;;;;;;10.82;6.60;;;3.40;56.00;;;1.89;61.84;100919.91;12146365;19;20394;-82
2022/12/13 08:10:24;;;;;;;9.27;6.05;;;3.40;56.00;;;1.84;61.89;100906.28;12146794;19;20398;-82
2022/12/13 08:14:26;;;;;;;8.38;5.88;;;3.40;56.00;;;1.89;61.82;100920.78;12146690;19;20453;-82
2022/12/13 08:18:29;;;;;;;11.23;6.50;;;3.40;56.00;;;1.86;61.99;100913.06;12144079;19;20013;-84
2022/12/13 08:22:30;;;;;;;11.82;6.78;;;3.40;56.00;;;1.80;61.96;100899.47;12148712;19;20015;-85
2022/12/13 08:26:32;;;;;;;11.90;7.38;;;3.50;56.10;;;1.50;61.77;100845.03;12147289;19;20361;-82
2022/12/13 08:30:35;;;;;;;10.05;6.60;;;3.40;56.00;;;1.26;61.89;100810.25;12171647;19;20022;-82
2022/12/13 08:34:38;;;;;;;11.45;6.95;;;3.50;56.00;;;1.93;61.86;100918.97;12191451;19;20412;-82
2022/12/13 08:38:40;;;;;;;12.20;7.55;;;3.50;56.00;;;1.79;61.79;100906.34;12179641;19;20265;-82
2022/12/13 08:42:41;;;;;;;10.55;7.35;;;3.50;56.00;;;1.88;61.84;100925.94;12162923;19;20407;-82
2022/12/13 08:46:43;;;;;;;10.10;6.72;;;3.40;56.00;;;1.87;61.73;100919.94;12155725;19;20010;-82
2022/12/13 08:50:45;;;;;;;10.07;6.88;;;3.50;56.00;;;1.95;61.75;100941.25;12145417;19;20014;-82
2022/12/13 08:54:46;;;;;;;10.45;6.50;;;3.50;56.00;;;1.80;61.75;100920.91;12148695;19;20029;-82
2022/12/13 08:58:50;;;;;;;11.77;6.28;;;3.80;56.20;;;1.95;61.81;100941.25;12140178;19;20014;-82
2022/12/13 09:02:56;;;;;;;10.93;6.15;;;3.60;56.10;;;1.88;61.83;100928.50;12140918;19;20412;-82
2022/12/13 09:06:58;;;;;;;10.75;6.57;;;3.50;56.00;;;1.87;61.97;100926.81;12140278;19;20007;-82
2022/12/13 09:11:01;;;;;;;9.48;6.20;;;3.50;56.10;;;1.96;61.70;100935.22;12136633;19;20407;-82
2022/12/13 09:15:03;;;;;;;11.77;7.15;;;3.60;56.10;;;1.84;61.85;100922.56;12131368;19;20018;-82
2022/12/13 09:19:05;;;;;;;10.10;6.85;;;3.60;56.00;;;1.99;61.88;100931.75;12136505;19;20271;-82
2022/12/13 09:23:09;;;;;;;11.35;7.18;;;3.60;56.00;;;2.02;61.90;100942.00;12129886;19;20050;-82
2022/12/13 09:27:11;;;;;;;10.10;6.45;;;3.60;56.00;;;1.90;61.79;100917.31;12135022;19;20011;-82
2022/12/13 09:31:18;;;;;;;12.35;6.68;;;3.60;56.10;;;1.98;61.91;100933.47;12126852;19;20018;-82
2022/12/13 09:35:20;;;;;;;11.10;7.18;;;3.60;56.00;;;1.96;62.02;100922.34;12131388;19;20019;-82
2022/12/13 09:39:22;;;;;;;11.02;7.00;;;3.60;56.00;;;1.91;61.76;100920.72;12131548;19;20173;-82
2022/12/13 09:43:31;;;;;;;9.60;6.65;;;3.70;56.00;;;2.01;61.66;100940.31;12133643;19;20018;-82
2022/12/13 09:47:38;;;;;;;11.50;7.55;;;3.70;56.00;;;1.95;61.78;100909.53;12130876;19;20495;-82
2022/12/13 09:51:40;;;;;;;11.32;7.13;;;3.70;56.00;;;2.03;61.82;100917.13;12129480;19;20023;-82
2022/12/13 09:55:48;;;;;;;11.90;6.57;;;3.70;56.00;;;2.05;61.86;100923.06;12132150;19;20393;-82
2022/12/13 09:59:50;;;;;;;9.82;6.38;;;3.70;56.00;;;2.09;61.79;100925.56;12131641;19;20028;-82
2022/12/13 10:03:54;;;;;;;10.65;6.35;;;3.70;56.00;;;2.15;61.89;100929.78;12132084;19;20382;-82
2022/12/13 10:08:03;;;;;;;12.50;8.00;;;3.70;56.00;;;1.98;61.83;100899.16;12131863;19;20015;-82
2022/12/13 10:12:09;;;;;;;11.30;6.93;;;3.80;56.00;;;2.07;61.80;100914.44;12134740;19;20034;-83
2022/12/13 10:16:30;;;;;;;12.90;6.68;;;3.80;56.00;;;2.22;61.74;100939.94;12131655;19;20027;-81
2022/12/13 10:20:33;;;;;;;13.38;8.30;;;3.80;56.00;;;2.22;61.71;100933.94;12131429;19;20109;-82
2022/12/13 10:24:50;;;;;;;14.05;8.80;;;3.80;56.00;;;2.21;61.71;100942.53;12132816;19;20025;-82
2022/12/13 10:29:03;;;;;;;14.38;8.60;;;3.80;55.80;;;2.26;61.80;100937.31;12135887;19;20281;-82
2022/12/13 10:33:05;;;;;;;13.02;7.97;;;3.80;55.80;;;2.19;61.78;100913.41;12131563;19;20033;-82
2022/12/13 10:37:30;;;;;;;13.40;7.80;;;3.90;56.00;;;2.29;61.88;100926.94;12131037;19;20031;-82
2022/12/13 10:41:35;;;;;;;11.10;6.25;;;3.90;55.80;;;2.18;61.79;100898.81;12125892;19;20023;-82
2022/12/13 10:45:37;;;;;;;9.07;6.18;;;3.90;55.90;;;2.33;61.78;100920.88;12133685;19;20475;-82
2022/12/13 10:49:55;;;;;;;10.35;6.30;;;3.90;55.80;;;2.27;61.77;100915.81;12137809;19;20029;-83
2022/12/13 10:53:59;;;;;;;9.40;6.30;;;3.90;55.80;;;2.33;61.80;100924.31;12142260;19;20379;-82
2022/12/13 10:58:06;;;;;;;11.65;6.72;;;3.90;55.70;;;2.24;61.82;100913.28;12140702;19;20010;-81
2022/12/13 11:02:26;;;;;;;9.20;5.95;;;3.90;55.70;;;2.36;61.85;100926.81;12142543;19;20355;-81
2022/12/13 11:06:44;;;;;;;10.07;6.85;;;3.90;55.60;;;2.35;61.73;100914.81;12135572;19;20446;-82
2022/12/13 11:10:59;;;;;;;10.15;6.50;;;3.90;55.70;;;2.21;61.97;100891.00;12138399;19;20886;-82
2022/12/13 11:15:06;;;;;;;10.65;6.43;;;3.90;55.70;;;2.37;61.74;100913.03;12144667;19;20011;-82
2022/12/13 11:19:16;;;;;;;10.55;6.65;;;4.00;55.70;;;2.41;61.61;100921.59;12144350;19;20382;-82
2022/12/13 11:23:35;;;;;;;7.68;5.57;;;4.00;55.70;;;2.34;61.50;100907.09;12152099;19;20015;-81
2022/12/13 11:28:19;;;;;;;9.60;6.20;;;4.00;55.70;;;2.41;61.66;100916.44;12166511;19;21012;-82
2022/12/13 11:32:45;;;;;;;9.23;6.57;;;4.00;55.60;;;2.42;62.02;100925.84;12178107;19;20850;-82
2022/12/13 11:37:08;;;;;;;8.48;5.78;;;4.00;55.70;;;2.33;61.63;100895.13;12179854;19;20022;-82
2022/12/13 11:41:41;;;;;;;7.75;5.82;;;4.00;55.70;;;2.43;61.73;100915.53;12175502;19;20018;-81
2022/12/13 11:45:49;;;;;;;9.15;5.90;;;4.00;55.70;;;2.48;61.58;100909.44;12165330;19;20813;-82
2022/12/13 11:49:52;;;;;;;11.20;6.53;;;4.00;55.70;;;2.44;61.65;100912.06;12134761;19;20413;-81
2022/12/13 11:54:07;;;;;;;8.57;5.85;;;4.20;55.70;;;2.40;61.67;100888.94;12134140;19;20029;-81
2022/12/13 11:58:15;;;;;;;;;;;4.00;55.60;;;2.49;61.70;100912.00;12185165;19;20010;-82
2022/12/13 12:02:37;;;;;;;7.82;5.13;;;4.10;55.80;;;2.51;61.70;100911.94;12183217;19;20292;-82
2022/12/13 12:07:08;;;;;;;8.10;5.53;;;4.10;55.60;;;2.47;61.73;100903.44;12178610;19;20021;-82
2022/12/13 12:11:31;;;;;;;9.48;6.35;;;4.10;55.60;;;2.48;61.75;100905.13;12157121;19;20050;-82
2022/12/13 12:15:44;;;;;;;10.88;6.18;;;4.10;55.60;;;2.51;61.60;100912.81;12158070;19;20467;-81
2022/12/13 12:19:52;;;;;;;9.93;6.30;;;4.10;55.60;;;2.43;61.82;100905.22;12146296;19;20015;-81
2022/12/13 12:24:17;;;;;;;9.90;6.22;;;4.10;55.60;;;2.53;61.54;100912.78;12150579;19;20277;-81
2022/12/13 12:28:46;;;;;;;8.60;5.85;;;4.10;55.50;;;2.52;61.74;100916.25;12143845;19;20451;-82
2022/12/13 12:33:22;;;;;;;8.73;5.95;;;4.10;55.50;;;2.48;61.49;100909.44;12144713;19;20388;-81
2022/12/13 12:38:05;;;;;;;8.98;5.65;;;4.10;55.50;;;2.51;61.63;100920.56;12131059;19;20022;-81
2022/12/13 12:42:22;;;;;;;8.60;5.53;;;4.10;55.50;;;2.51;61.55;100910.25;12149835;19;20014;-82
2022/12/13 12:47:01;;;;;;;9.07;5.68;;;4.00;55.50;;;2.37;61.57;100892.44;12144642;19;20605;-82
2022/12/13 12:51:38;;;;;;;8.10;5.80;;;4.10;55.50;;;2.44;61.60;100900.91;12135098;19;20059;-81
2022/12/13 12:56:04;;;;;;;9.02;5.65;;;4.10;55.40;;;2.55;61.40;100909.28;12131784;19;20047;-81
2022/12/13 13:00:20;;;;;;;8.82;5.45;;;4.10;55.40;;;2.53;61.67;100908.47;12139808;19;20018;-82
2022/12/13 13:04:31;;;;;;;11.38;5.30;;;4.20;55.50;;;2.48;61.61;100899.13;12137237;19;20406;-82
2022/12/13 13:08:59;;;;;;;7.85;5.90;;;4.00;55.40;;;2.53;61.38;100908.47;12135314;19;20022;-82
2022/12/13 13:13:01;;;;;;;7.90;5.50;;;4.10;55.20;;;2.45;61.59;100900.03;12136331;19;20897;-82
2022/12/13 13:17:15;;;;;;;10.05;6.45;;;4.10;55.40;;;2.55;61.67;100927.31;12133659;19;20121;-82
2022/12/13 13:21:22;;;;;;;9.32;5.70;;;4.10;55.30;;;2.55;61.46;100926.50;12160771;19;20011;-82
2022/12/13 13:25:34;;;;;;;7.25;5.30;;;4.10;55.30;;;2.54;61.57;100920.50;12161437;19;20035;-82
2022/12/13 13:29:40;;;;;;;6.85;4.78;;;4.10;55.30;;;2.47;61.34;100903.44;12151556;19;20857;-82
2022/12/13 13:33:45;;;;;;;7.82;5.55;;;4.10;55.30;;;2.50;61.62;100905.09;12159076;19;20022;-83
2022/12/13 13:37:48;;;;;;;9.15;5.57;;;4.10;55.40;;;2.58;61.56;100924.69;12146607;19;20025;-82
2022/12/13 13:42:14;;;;;;;7.30;4.53;;;4.10;55.30;;;2.60;61.39;100922.09;12129713;19;20011;-82
2022/12/13 13:46:16;;;;;;;9.10;5.32;;;4.20;55.30;;;2.62;61.47;100928.06;12145460;19;20957;-82
2022/12/13 13:50:51;;;;;;;9.85;6.03;;;4.30;55.40;;;2.60;61.42;100922.94;12159384;19;20391;-85
2022/12/13 13:55:05;;;;;;;8.00;5.30;;;4.10;55.20;;;2.62;61.44;100925.50;12152926;19;20926;-84
2022/12/13 13:59:56;;;;;;;7.57;5.15;;;4.20;55.40;;;2.60;61.56;100925.50;12153457;19;20010;-82
2022/12/13 14:04:32;;;;;;;9.43;5.90;;;4.20;55.20;;;2.59;61.39;100923.84;12161230;19;20024;-84
2022/12/13 14:09:21;;;;;;;9.65;4.93;;;4.20;55.20;;;2.59;61.27;100930.69;12159227;19;20696;-82
2022/12/13 14:14:01;;;;;;;7.30;5.18;;;4.10;55.10;;;2.59;61.45;100922.97;12141944;19;20014;-82
2022/12/13 14:18:34;;;;;;;8.98;5.57;;;4.20;55.20;;;2.55;61.45;100908.44;12137810;19;20019;-82
2022/12/13 14:22:59;;;;;;;8.80;5.57;;;4.20;55.20;;;2.60;61.27;100915.22;12160750;19;20034;-81
2022/12/13 14:27:13;;;;;;;9.23;6.35;;;4.20;55.20;;;2.62;61.39;100923.75;12165483;19;20467;-81
2022/12/13 14:31:39;;;;;;;10.77;6.47;;;4.10;55.30;;;2.62;61.37;100913.44;12134593;19;20360;-81
2022/12/13 14:35:51;;;;;;;10.48;6.38;;;4.20;55.20;;;2.50;61.21;100899.94;12114436;19;20023;-82
2022/12/13 14:39:53;;;;;;;10.98;6.82;;;4.20;55.20;;;2.57;61.39;100909.28;12127895;19;20018;-80
2022/12/13 14:43:55;;;;;;;10.55;6.93;;;4.20;55.20;;;2.58;61.19;100911.81;12168689;19;20438;-81
2022/12/13 14:48:02;;;;;;;10.15;6.30;;;4.20;55.00;;;2.62;61.21;100917.75;12179825;19;20023;-82
2022/12/13 14:52:32;;;;;;;11.15;7.28;;;4.20;55.00;;;2.56;61.27;100921.28;12153819;19;20908;-82
2022/12/13 14:56:34;;;;;;;9.73;6.82;;;4.20;54.80;;;2.63;61.29;100934.91;12147857;19;20698;-82
2022/12/13 15:00:40;;;;;;;12.32;6.53;;;4.20;55.10;;;2.60;61.47;100924.66;12174349;19;20475;-82
2022/12/13 15:04:43;;;;;;;10.27;6.70;;;4.20;55.10;;;2.63;61.14;100927.19;12190028;19;20039;-82
2022/12/13 15:08:46;;;;;;;9.30;6.03;;;4.20;55.20;;;2.63;61.30;100916.88;12184003;19;20079;-82
2022/12/13 15:12:52;;;;;;;8.43;6.00;;;4.10;55.10;;;2.63;61.23;100920.31;12150003;19;20014;-82
2022/12/13 15:16:55;;;;;;;13.27;7.03;;;4.10;55.10;;;2.59;61.22;100922.97;12149720;19;20029;-82
2022/12/13 15:21:01;;;;;;;10.57;6.75;;;4.20;55.20;;;2.56;61.17;100916.13;12188518;19;20657;-83
2022/12/13 15:25:16;;;;;;;10.98;7.00;;;4.10;55.10;;;2.44;61.28;100883.72;12200896;19;20492;-83
2022/12/13 15:29:23;;;;;;;12.10;7.40;;;4.20;55.60;;;2.64;61.26;100918.56;12186154;19;20867;-82
2022/12/13 15:33:28;;;;;;;12.35;7.68;;;4.20;55.10;;;2.52;61.25;100898.19;12138692;19;20015;-82
2022/12/13 15:37:32;;;;;;;13.07;8.07;;;4.20;55.20;;;2.61;61.04;100922.03;12141334;19;20074;-82
2022/12/13 15:41:42;;;;;;;11.93;7.22;;;4.40;55.30;;;2.61;61.22;100932.34;12131104;19;20404;-82
2022/12/13 15:45:48;;;;;;;10.95;6.70;;;4.20;55.20;;;2.47;61.29;100906.00;12147441;19;20435;-82
2022/12/13 15:50:04;;;;;;;8.85;5.90;;;4.20;55.20;;;2.58;61.35;100923.84;12128657;19;20025;-82
2022/12/13 15:54:20;;;;;;;;;;;4.20;55.20;;;2.59;61.16;100926.41;12136470;19;20043;-82
2022/12/13 15:58:35;;;;;;;16.95;12.60;;;4.20;55.40;;;2.60;61.34;100919.50;12149385;19;19918;-82
2022/12/13 16:03:07;;;;;;;36.30;21.20;;;4.20;55.30;;;2.60;61.45;100919.50;12163327;19;20869;-82
2022/12/13 16:07:38;;;;;;;42.78;27.00;;;4.20;55.60;;;2.39;61.28;100890.69;12188259;19;20931;-82
2022/12/13 16:11:58;;;;;;;57.75;36.00;;;4.20;55.30;;;2.52;61.09;100904.19;12182181;19;20376;-82
2022/12/13 16:16:08;;;;;;;32.65;20.67;;;4.20;55.30;;;2.62;61.29;100923.75;12190207;19;20010;-82
2022/12/13 16:20:16;;;;;;;21.10;12.80;;;4.20;55.30;;;2.62;61.34;100923.75;12191558;19;20018;-82
2022/12/13 16:24:18;;;;;;;27.75;15.23;;;4.10;55.20;;;2.63;61.21;100919.44;12188994;19;20486;-81
2022/12/13 16:28:21;;;;;;;25.60;14.27;;;4.20;55.20;;;2.46;61.22;100891.44;12185263;19;20026;-83
2022/12/13 16:32:23;;;;;;;28.20;13.57;;;4.20;55.10;;;2.48;61.16;100899.97;12182690;19;20073;-83
2022/12/13 16:36:25;;;;;;;24.33;12.98;;;4.30;55.20;;;2.59;61.24;100916.09;12176219;19;20018;-82
2022/12/13 16:40:29;;;;;;;19.85;10.70;;;4.10;55.20;;;2.55;61.07;100906.72;12170141;19;20018;-83
2022/12/13 16:44:37;;;;;;;16.38;9.43;;;4.10;55.10;;;2.56;61.38;100907.56;12171884;19;20340;-82
2022/12/13 16:48:39;;;;;;;17.58;9.25;;;4.10;55.10;;;1.97;61.36;100809.88;12169856;19;20011;-83
2022/12/13 16:52:41;;;;;;;14.75;8.95;;;4.10;55.20;;;2.45;61.25;100897.44;12170609;19;20018;-82
2022/12/13 16:56:42;;;;;;;13.80;8.13;;;4.10;55.10;;;2.51;61.10;100911.94;12166237;19;20384;-81
2022/12/13 17:00:47;;;;;;;12.45;8.00;;;4.10;55.00;;;2.45;61.27;100900.03;12171948;19;20023;-83
2022/12/13 17:04:49;;;;;;;15.07;9.25;;;4.00;55.00;;;2.45;61.11;100902.59;12166910;19;20109;-81
2022/12/13 17:08:51;;;;;;;13.23;8.65;;;4.00;55.10;;;2.40;61.17;100891.53;12163796;19;20129;-82
2022/12/13 17:12:53;;;;;;;16.58;9.85;;;4.00;55.10;;;2.44;61.10;100900.91;12158143;19;21281;-81
2022/12/13 17:16:55;;;;;;;17.88;11.15;;;4.00;55.10;;;2.47;61.15;100902.59;12160647;19;20029;-82
2022/12/13 17:20:56;;;;;;;17.52;10.52;;;4.00;55.10;;;2.44;61.10;100908.66;12160036;19;20795;-82
2022/12/13 17:24:58;;;;;;;21.15;11.38;;;4.00;55.00;;;2.41;61.08;100906.13;12159370;19;20015;-81
2022/12/13 17:29:00;;;;;;;14.50;10.07;;;4.00;55.10;;;2.34;60.99;100896.81;12168252;19;20010;-81